Latest Weather Observations for Dennes Point

IDT60901

Issued at 7:15 pm EDT Friday 31 October 2014 (issued every 10 minutes, with the page automatically refreshed every 10 minutes)

About weather observations | Map of Hobart area stations | Latest observations for Hobart area | Other Formats
Station Details ID: 094255 Name: DENNES POINT Lat: -43.06 Lon: 147.36 Height: 5.67 m
Data from the previous 72 hours. | See also: Recent months at Dennes Point
Date/Time
EDT
Tmp

°C
App
Tmp
°C
Dew
Point
°C
Rel
Hum
%
Delta-T

°C
Wind Press
QNH
hPa
Press
MSL
hPa
Rain
since
9 am
mm
Dir
 
Spd
km/h
Gust
km/h
Spd
kts
Gust
kts
31/07:00pm 17.6 16.9 11.9 69 3.2 NNE 7 13 4 7 994.3 994.3 0.0
31/06:30pm 19.9 15.9 10.6 55 5.0 N 22 28 12 15 994.4 994.4 0.0
31/06:00pm 19.7 15.0 10.7 56 4.9 N 26 33 14 18 995.0 995.0 0.0
31/05:30pm 19.1 15.5 11.9 63 4.0 NNE 22 28 12 15 995.1 995.1 0.0
31/05:00pm 20.2 18.9 11.1 56 5.0 N 9 19 5 10 996.4 996.4 0.0
31/04:30pm 20.0 18.1 11.8 59 4.5 NE 13 17 7 9 997.1 997.1 0.0
31/04:00pm 21.4 20.5 11.4 53 5.6 WNW 7 15 4 8 997.6 997.6 0.0
31/03:30pm 20.3 18.8 12.0 59 4.7 W 11 22 6 12 998.5 998.5 0.0
31/03:00pm 18.7 18.6 10.8 60 4.3 ESE 2 6 1 3 999.1 999.1 0.0
31/02:30pm 18.6 17.7 10.7 60 4.3 NW 6 9 3 5 999.7 999.7 0.0
31/02:00pm 17.2 14.9 10.3 64 3.7 N 13 19 7 10 999.7 999.7 0.0
31/01:30pm 17.5 15.8 11.1 66 3.5 N 11 15 6 8 1000.0 1000.0 0.0
31/01:00pm 16.9 15.7 10.3 65 3.5 N 7 9 4 5 1000.5 1000.5 0.0
31/12:30pm 16.6 15.0 10.2 66 3.4 N 9 13 5 7 1000.9 1000.9 0.0
31/12:00pm 15.8 13.2 9.2 65 3.4 NW 13 17 7 9 1001.4 1001.4 0.0
31/11:30am 15.6 13.4 9.3 66 3.2 NW 11 17 6 9 1001.6 1001.6 0.0
31/11:00am 15.2 13.2 8.7 65 3.3 N 9 15 5 8 1002.3 1002.2 0.0
31/10:30am 15.1 11.9 8.3 64 3.4 N 15 20 8 11 1002.8 1002.7 0.0
31/10:00am 14.6 11.0 8.3 66 3.2 N 17 20 9 11 1003.5 1003.5 0.0
31/09:30am 14.5 10.6 8.5 67 3.0 N 19 24 10 13 1003.6 1003.6 0.0
31/09:00am 13.9 9.4 8.5 70 2.7 N 22 26 12 14 1004.0 1004.0 0.4
31/08:30am 14.0 10.2 9.0 72 2.5 N 19 24 10 13 1003.9 1003.9 0.4
31/08:00am 13.6 11.3 8.9 73 2.4 N 11 13 6 7 1004.6 1004.6 0.4
31/07:30am 13.4 10.6 8.7 73 2.4 NNW 13 15 7 8 1004.5 1004.5 0.4
31/07:00am 13.4 10.3 8.7 73 2.4 NNW 15 17 8 9 1004.4 1004.4 0.4
31/06:30am 13.1 11.5 8.8 75 2.2 NNW 7 11 4 6 1004.6 1004.6 0.4
31/06:00am 13.0 11.3 8.3 73 2.3 NNW 7 11 4 6 1004.5 1004.5 0.4
31/05:30am 13.0 10.6 8.5 74 2.2 NNW 11 13 6 7 1004.7 1004.7 0.4
31/05:00am 13.2 10.1 8.7 74 2.3 NNW 15 19 8 10 1004.9 1004.9 0.4
31/04:30am 13.3 10.9 8.8 74 2.3 N 11 19 6 10 1005.1 1005.1 0.4
31/04:00am 13.2 10.4 8.5 73 2.4 NNW 13 15 7 8 1005.4 1005.4 0.4
31/03:30am 13.1 10.3 8.6 74 2.2 NNW 13 17 7 9 1005.7 1005.7 0.4
31/03:00am 13.0 10.6 8.7 75 2.2 NNW 11 13 6 7 1005.8 1005.8 0.4
31/02:30am 13.0 10.6 8.5 74 2.2 N 11 15 6 8 1006.2 1006.2 0.4
31/02:00am 12.9 10.4 8.2 73 2.3 NNW 11 13 6 7 1006.6 1006.6 0.4
31/01:30am 12.9 10.5 8.6 75 2.1 NNW 11 15 6 8 1007.0 1007.0 0.4
31/01:00am 12.8 10.7 8.3 74 2.2 NNW 9 11 5 6 1007.5 1007.5 0.4
31/12:30am 12.7 10.6 8.2 74 2.2 NNW 9 11 5 6 1007.8 1007.8 0.4
31/12:00am 12.8 10.6 7.7 71 2.5 NNW 9 13 5 7 1008.1 1008.1 0.4
 
Date/Time
EDT
Tmp

°C
App
Tmp
°C
Dew
Point
°C
Rel
Hum
%
Delta-T

°C
Wind Press
QNH
hPa
Press
MSL
hPa
Rain
since
9 am
mm
Dir
 
Spd
km/h
Gust
km/h
Spd
kts
Gust
kts
30/11:30pm 12.8 10.1 7.5 70 2.6 WNW 11 15 6 8 1008.0 1008.0 0.4
30/11:00pm 13.3 10.2 7.3 67 2.9 NW 13 22 7 12 1008.2 1008.2 0.4
30/10:30pm 13.4 10.1 6.5 63 3.3 WNW 13 15 7 8 1008.5 1008.5 0.4
30/10:00pm 13.3 10.8 6.4 63 3.3 NNW 9 13 5 7 1008.5 1008.5 0.4
30/09:30pm 13.2 10.2 5.9 61 3.4 WNW 11 19 6 10 1008.6 1008.6 0.4
30/09:00pm 11.9 9.9 6.4 69 2.6 W 6 9 3 5 1008.5 1008.5 0.4
30/08:30pm 12.4 10.9 6.7 68 2.7 W 4 6 2 3 1008.4 1008.4 0.4
30/08:00pm 12.8 10.8 6.2 64 3.1 W 6 7 3 4 1008.2 1008.2 0.4
30/07:30pm 14.0 11.7 5.9 58 3.8 NW 7 13 4 7 1008.0 1008.0 0.4
30/07:00pm 14.2 9.9 6.8 61 3.6 W 19 22 10 12 1007.7 1007.7 0.4
30/06:30pm 14.1 11.4 7.4 64 3.3 NW 11 19 6 10 1007.6 1007.6 0.4
30/06:00pm 14.3 8.9 6.2 58 3.9 W 24 32 13 17 1007.6 1007.6 0.4
30/05:30pm 14.4 8.8 7.0 61 3.6 W 26 43 14 23 1007.5 1007.5 0.4
30/05:00pm 14.5 8.8 6.8 60 3.8 WSW 26 32 14 17 1007.5 1007.5 0.4
30/04:30pm 14.7 9.7 6.3 57 4.0 W 22 30 12 16 1007.3 1007.3 0.4
30/04:00pm 14.5 8.9 7.3 62 3.5 W 26 33 14 18 1007.4 1007.4 0.4
30/03:30pm 14.2 8.6 7.3 63 3.4 W 26 37 14 20 1007.3 1007.3 0.4
30/03:00pm 14.2 9.8 7.5 64 3.3 SW 20 37 11 20 1007.5 1007.5 0.4
30/02:30pm 12.9 11.7 9.7 81 1.6 ENE 6 7 3 4 1007.1 1007.1 0.4
30/02:00pm 12.9 9.9 9.4 79 1.8 E 15 17 8 9 1007.0 1007.0 0.4
30/01:30pm 13.2 11.5 10.0 81 1.6 E 9 13 5 7 1007.0 1007.0 0.4
30/01:00pm 12.5 10.6 10.4 87 1.1 E 11 17 6 9 1007.4 1007.4 0.4
30/12:30pm 12.3 9.5 10.0 86 1.2 ESE 15 19 8 10 1007.3 1007.3 0.2
30/12:00pm 12.0 8.8 10.1 88 1.0 E 17 22 9 12 1007.4 1007.4 0.2
30/11:30am 12.9 10.8 11.1 89 0.9 E 13 17 7 9 1007.6 1007.6 0.2
30/11:00am 12.0 11.1 10.6 91 0.7 SE 6 9 3 5 1007.9 1007.9 0.0
30/10:30am 11.9 9.5 10.0 88 1.0 SE 13 19 7 10 1007.7 1007.7 0.0
30/10:00am 12.7 9.4 9.5 81 1.6 ESE 17 22 9 12 1007.4 1007.4 0.0
30/09:30am 13.9 11.8 8.3 69 2.8 W 9 15 5 8 1007.2 1007.2 0.0
30/09:00am 14.1 10.1 8.1 67 3.0 W 19 22 10 12 1007.0 1007.0 0.0
30/08:30am 14.0 10.9 7.3 64 3.3 WNW 13 19 7 10 1007.0 1007.0 0.0
30/08:00am 14.2 11.2 7.7 65 3.2 W 13 19 7 10 1007.0 1007.0 0.0
30/07:30am 13.6 10.9 7.4 66 3.0 WSW 11 19 6 10 1006.8 1006.8 0.0
30/07:00am 12.7 10.9 7.8 72 2.4 WSW 7 15 4 8 1006.6 1006.6 0.0
30/06:30am 12.6 10.3 7.5 71 2.5 NW 9 13 5 7 1006.2 1006.2 0.0
30/06:00am 12.7 9.4 8.0 73 2.3 NNW 15 20 8 11 1005.5 1005.5 0.0
30/05:30am 13.1 11.3 7.1 67 2.9 NNW 6 15 3 8 1005.9 1005.9 0.0
30/05:00am 12.8 10.5 7.3 69 2.7 NNW 9 15 5 8 1006.0 1006.0 0.0
30/04:30am 12.8 10.1 7.5 70 2.6 NW 11 17 6 9 1006.0 1006.0 0.0
30/04:00am 12.9 11.0 6.9 67 2.9 W 6 9 3 5 1006.1 1006.1 0.0
30/03:30am 13.1 11.2 6.7 65 3.1 WNW 6 9 3 5 1005.9 1005.9 0.0
30/03:00am 13.1 7.4 6.5 64 3.2 W 26 33 14 18 1006.0 1006.0 0.0
30/02:30am 12.9 7.8 6.0 63 3.3 WNW 22 32 12 17 1005.8 1005.8 0.0
30/02:00am 13.2 8.8 6.5 64 3.2 WNW 19 30 10 16 1006.0 1006.0 0.0
30/01:30am 12.7 10.0 7.4 70 2.6 WNW 11 15 6 8 1006.1 1006.1 0.0
30/01:00am 13.0 10.3 7.2 68 2.8 W 11 15 6 8 1006.6 1006.6 0.0
30/12:30am 13.3 9.4 6.9 65 3.1 WNW 17 24 9 13 1006.4 1006.4 0.0
30/12:00am 13.5 9.0 7.1 65 3.1 WNW 20 32 11 17 1006.3 1006.3 0.0
 
Date/Time
EDT
Tmp

°C
App
Tmp
°C
Dew
Point
°C
Rel
Hum
%
Delta-T

°C
Wind Press
QNH
hPa
Press
MSL
hPa
Rain
since
9 am
mm
Dir
 
Spd
km/h
Gust
km/h
Spd
kts
Gust
kts
29/11:30pm 13.0 9.6 7.5 69 2.7 WNW 15 20 8 11 1006.4 1006.4 0.0
29/11:00pm 13.4 9.2 7.4 67 2.9 WSW 19 26 10 14 1006.7 1006.7 0.0
29/10:30pm 13.7 10.1 6.8 63 3.3 WNW 15 26 8 14 1006.7 1006.7 0.0
29/10:00pm 13.7 9.2 7.0 64 3.3 WNW 20 28 11 15 1006.6 1006.6 0.0
29/09:30pm 13.9 9.0 7.0 63 3.4 WNW 22 33 12 18 1006.4 1006.4 0.0
29/09:00pm 14.2 8.2 7.0 62 3.5 WNW 28 37 15 20 1006.4 1006.4 0.0
29/08:30pm 14.7 7.3 6.8 59 3.8 WNW 35 46 19 25 1006.0 1006.0 0.0
29/08:01pm 14.8 7.5 7.4 61 3.6 W 35 56 19 30 1005.7 1005.7 0.0
29/08:00pm 14.7 7.0 7.0 60 3.8 W 37 56 20 30 1005.7 1005.7 0.0
29/07:42pm 15.2 7.1 7.0 58 4.0 W 39 63 21 34 1005.5 1005.5 0.0
29/07:30pm 15.1 7.5 7.4 60 3.8 WNW 37 50 20 27 1005.4 1005.4 0.0
29/07:06pm 15.5 8.3 7.5 59 4.0 WNW 35 54 19 29 1005.4 1005.4 0.0
29/07:00pm 15.7 8.4 7.2 57 4.2 WNW 35 52 19 28 1005.4 1005.4 0.0
29/06:37pm 16.1 9.1 6.8 54 4.6 WNW 33 54 18 29 1005.3 1005.3 0.0
29/06:30pm 16.4 8.2 6.5 52 4.8 W 39 52 21 28 1005.4 1005.4 0.0
29/06:00pm 16.8 9.1 7.2 53 4.8 WNW 37 56 20 30 1005.4 1005.4 0.0
29/05:50pm 17.2 10.4 7.0 51 5.1 W 32 56 17 30 1005.5 1005.5 0.0
29/05:30pm 17.8 11.5 7.2 50 5.3 W 30 43 16 23 1005.4 1005.4 0.0
29/05:09pm 17.8 10.9 7.2 50 5.3 W 33 52 18 28 1005.5 1005.5 0.0
29/05:00pm 18.0 10.2 6.5 47 5.7 W 37 52 20 28 1005.4 1005.4 0.0
29/04:30pm 17.9 10.2 7.0 49 5.4 W 37 56 20 30 1005.2 1005.2 0.0
29/04:00pm 18.0 9.0 7.1 49 5.5 W 44 67 24 36 1005.2 1005.2 0.0
29/03:30pm 17.4 7.6 6.9 50 5.2 W 48 67 26 36 1005.3 1005.3 0.0
29/03:03pm 17.4 10.2 7.7 53 4.9 W 35 56 19 30 1005.4 1005.4 0.0
29/03:00pm 17.5 9.8 7.0 50 5.3 W 37 56 20 30 1005.4 1005.4 0.0
29/02:32pm 16.9 8.0 7.0 52 4.9 WNW 43 72 23 39 1005.7 1005.7 0.0
29/02:30pm 17.1 8.3 7.2 52 4.9 WNW 43 59 23 32 1005.9 1005.9 0.0
29/02:00pm 17.4 10.5 6.6 49 5.4 W 32 50 17 27 1006.1 1006.1 0.0
29/01:31pm 17.2 9.7 6.1 48 5.4 WNW 35 56 19 30 1006.5 1006.5 0.0
29/01:30pm 17.2 9.7 6.1 48 5.4 WNW 35 52 19 28 1006.6 1006.6 0.0
29/01:01pm 16.4 10.3 6.5 52 4.8 WNW 28 52 15 28 1006.8 1006.8 0.0
29/01:00pm 16.5 10.7 6.1 50 5.1 WNW 26 52 14 28 1006.8 1006.8 0.0
29/12:30pm 15.9 10.2 6.6 54 4.5 W 26 43 14 23 1007.2 1007.2 0.0
29/12:00pm 15.8 12.4 7.6 58 4.1 WNW 15 22 8 12 1007.5 1007.5 0.0
29/11:30am 15.1 10.7 6.7 57 4.1 WNW 19 30 10 16 1007.8 1007.8 0.0
29/11:00am 14.2 11.3 6.3 59 3.8 WNW 11 19 6 10 1008.2 1008.2 0.0
29/10:30am 13.0 11.3 5.7 61 3.4 NW 4 7 2 4 1008.6 1008.6 0.0
29/10:00am 12.3 10.2 5.7 64 3.1 N 6 13 3 7 1008.9 1008.9 0.0
29/09:30am 11.7 8.9 5.1 64 3.0 N 9 15 5 8 1009.1 1009.1 0.0
29/09:00am 11.6 9.0 4.3 61 3.3 NNW 7 13 4 7 1009.0 1009.0 1.6
29/08:30am 11.2 8.2 4.0 61 3.2 N 9 13 5 7 1009.2 1009.2 1.6
29/08:00am 11.2 8.2 4.0 61 3.2 N 9 15 5 8 1009.0 1009.0 1.6
29/07:30am 11.0 6.4 3.8 61 3.2 NNW 17 22 9 12 1008.7 1008.7 1.6
29/07:00am 10.6 6.5 4.3 65 2.8 NW 15 26 8 14 1008.9 1008.9 1.6
29/06:30am 10.0 5.4 3.5 64 2.8 NW 17 24 9 13 1008.7 1008.7 1.6
29/06:11am 10.0 2.8 3.1 62 3.0 W 30 48 16 26 1008.2 1008.2 1.6
29/06:00am 10.1 3.4 3.8 65 2.8 W 28 44 15 24 1008.1 1008.1 1.6
29/05:30am 9.2 3.8 2.5 63 2.8 W 20 30 11 16 1007.9 1007.9 1.6
29/05:00am 8.8 3.5 2.8 66 2.5 WSW 20 30 11 16 1008.0 1008.0 1.6
29/04:30am 9.2 3.2 3.4 67 2.5 W 24 37 13 20 1007.8 1007.8 1.6
29/04:00am 9.0 2.0 1.9 61 3.0 WSW 28 37 15 20 1007.7 1007.7 1.6
29/03:30am 8.8 2.1 1.5 60 3.0 WSW 26 33 14 18 1007.4 1007.4 1.6
29/03:00am 8.6 1.8 1.1 59 3.1 WSW 26 35 14 19 1007.5 1007.5 1.6
29/02:30am 8.4 2.2 -0.1 55 3.3 SW 22 32 12 17 1007.7 1007.7 1.6
29/02:00am 8.2 2.3 -1.1 52 3.6 WSW 20 30 11 16 1007.8 1007.8 1.6
29/01:30am 8.4 3.2 0.4 57 3.2 W 17 26 9 14 1007.8 1007.8 1.6
29/01:00am 7.3 4.7 1.2 65 2.5 SSE 4 7 2 4 1007.5 1007.5 1.6
29/12:30am 7.7 3.7 2.8 71 2.1 SW 13 22 7 12 1007.3 1007.3 1.6
29/12:00am 7.9 0.7 3.0 71 2.1 WSW 30 50 16 27 1006.5 1006.5 1.6
 
Date/Time
EDT
Tmp

°C
App
Tmp
°C
Dew
Point
°C
Rel
Hum
%
Delta-T

°C
Wind Press
QNH
hPa
Press
MSL
hPa
Rain
since
9 am
mm
Dir
 
Spd
km/h
Gust
km/h
Spd
kts
Gust
kts
28/11:30pm 7.9 -0.6 3.2 72 2.0 W 37 48 20 26 1005.6 1005.6 1.6
28/11:00pm 7.5 -0.4 4.5 81 1.3 WSW 35 50 19 27 1004.8 1004.8 1.6
28/10:30pm 7.8 -2.7 3.8 76 1.7 WSW 48 69 26 37 1004.1 1004.1 1.6
28/10:01pm 7.8 -1.6 4.2 78 1.6 WSW 43 65 23 35 1003.8 1003.8 1.6
28/10:00pm 7.7 -1.4 4.1 78 1.6 WSW 41 57 22 31 1003.8 1003.8 1.6
28/09:48pm 7.4 -3.0 4.0 79 1.5 WSW 48 69 26 37 1003.6 1003.6 1.6
28/09:30pm 7.9 -4.1 4.5 79 1.5 WSW 57 74 31 40 1003.0 1002.9 1.6
28/09:00pm 8.0 -3.8 4.6 79 1.5 W 56 76 30 41 1002.4 1002.3 1.6
28/08:31pm 8.2 -3.1 3.7 73 1.9 W 52 72 28 39 1001.5 1001.5 1.6
28/08:30pm 8.2 -3.5 3.5 72 2.0 W 54 72 29 39 1001.3 1001.3 1.6
28/08:08pm 7.8 -2.9 4.7 81 1.4 WSW 50 70 27 38 1001.0 1001.0 1.6
28/08:00pm 7.7 -4.1 4.7 81 1.3 WSW 56 69 30 37 1000.8 1000.8 1.6
28/07:30pm 8.1 -2.2 4.7 79 1.5 WSW 48 69 26 37 1000.1 1000.1 1.4

Latest Capital City Observations: Canberra | Sydney | Melbourne | Brisbane | Adelaide | Perth | Hobart | Darwin

Other Formats:

Comma delimited format used in spreadsheet applications
http://www.bom.gov.au/fwo/IDT60901/IDT60901.94988.axf

JavaScript Object Notation format (JSON) in row-major order
http://www.bom.gov.au/fwo/IDT60901/IDT60901.94988.json